Time;durP1;ratioP1;P1;durP2;ratioP2;P2;SDS_P1;SDS_P2;PMS_P1;PMS_P2;Temp;Humidity;BMP_temperature;BMP_pressure;BME280_temperature;BME280_humidity;BME280_pressure;Samples;Min_cycle;Max_cycle;Signal;HPM_P1;HPM_P2
2021/12/30 00:00:46;;;;;;;13.40;8.47;;;;;;;2.72;89.86;95318.17;1761034;81;21478;-61
2021/12/30 00:03:13;;;;;;;17.07;9.97;;;;;;;2.67;89.89;95322.88;1760952;81;20977;-60
2021/12/30 00:05:42;;;;;;;19.20;11.47;;;;;;;2.59;89.76;95330.63;1761041;81;21013;-61
2021/12/30 00:08:08;;;;;;;14.43;9.90;;;;;;;2.53;89.92;95322.34;1761055;81;21435;-60
2021/12/30 00:10:36;;;;;;;15.80;10.83;;;;;;;2.45;89.77;95328.37;1760737;81;21021;-61
2021/12/30 00:13:03;;;;;;;17.13;11.10;;;;;;;2.36;89.69;95330.02;1760968;81;21052;-61
2021/12/30 00:15:30;;;;;;;16.13;10.50;;;;;;;2.37;89.86;95344.80;1760934;81;21002;-61
2021/12/30 00:17:57;;;;;;;16.73;10.67;;;;;;;2.38;89.76;95341.75;1760814;81;21009;-60
2021/12/30 00:20:24;;;;;;;16.27;10.23;;;;;;;2.40;90.01;95342.65;1760959;81;20981;-61
2021/12/30 00:22:51;;;;;;;14.60;10.33;;;;;;;2.46;90.28;95333.57;1761031;81;21052;-61
2021/12/30 00:25:19;;;;;;;14.77;9.90;;;;;;;2.48;90.33;95337.06;1760781;81;21033;-61
2021/12/30 00:27:46;;;;;;;15.53;9.90;;;;;;;2.52;90.44;95337.55;1760693;81;21020;-61
2021/12/30 00:30:15;;;;;;;14.90;9.80;;;;;;;2.50;90.17;95340.56;1761204;81;21012;-61
2021/12/30 00:32:41;;;;;;;13.40;9.27;;;;;;;2.48;90.12;95339.67;1760802;81;21051;-61
2021/12/30 00:35:11;;;;;;;13.00;8.77;;;;;;;2.48;90.21;95342.27;1760979;81;21033;-61
2021/12/30 00:37:39;;;;;;;15.57;9.63;;;;;;;2.50;90.26;95343.16;1760911;81;21021;-61
2021/12/30 00:40:08;;;;;;;16.43;10.20;;;;;;;2.49;90.21;95350.52;1760655;81;20989;-61
2021/12/30 00:42:34;;;;;;;21.77;10.80;;;;;;;2.50;90.06;95345.77;1760974;81;21493;-61
2021/12/30 00:45:01;;;;;;;15.00;9.87;;;;;;;2.53;90.28;95348.83;1760608;81;21104;-61
2021/12/30 00:47:27;;;;;;;14.17;9.90;;;;;;;2.57;90.29;95352.78;1761222;81;21004;-60
2021/12/30 00:49:54;;;;;;;16.63;9.70;;;;;;;2.49;90.02;95360.06;1761285;81;20981;-61
2021/12/30 00:52:20;;;;;;;15.63;9.93;;;;;;;2.49;90.09;95358.33;1760511;81;21024;-61
2021/12/30 00:54:47;;;;;;;20.53;11.47;;;;;;;2.49;90.20;95363.97;1785180;80;21499;-61
2021/12/30 00:57:14;;;;;;;19.47;11.60;;;;;;;2.50;90.37;95365.73;1796081;80;21460;-61
2021/12/30 00:59:41;;;;;;;17.73;10.73;;;;;;;2.55;90.37;95360.14;1795938;80;20990;-61
2021/12/30 01:02:08;;;;;;;18.50;10.70;;;;;;;2.55;90.27;95367.95;1795990;80;21041;-61
2021/12/30 01:04:35;;;;;;;19.00;11.10;;;;;;;2.54;90.17;95364.88;1795751;80;21025;-61
2021/12/30 01:07:02;;;;;;;24.20;12.33;;;;;;;2.53;90.18;95363.16;1796008;80;21009;-61
2021/12/30 01:09:29;;;;;;;22.17;11.97;;;;;;;2.57;90.36;95362.30;1795960;80;20993;-61
2021/12/30 01:11:57;;;;;;;21.07;11.57;;;;;;;2.62;90.55;95374.96;1796071;80;20993;-61
2021/12/30 01:14:28;;;;;;;24.57;12.30;;;;;;;2.66;90.41;95369.33;1795878;80;21536;-62
2021/12/30 01:16:58;;;;;;;19.97;11.07;;;;;;;2.69;90.60;95371.52;1796418;80;21002;-61
2021/12/30 01:22:12;;;;;;;19.77;10.43;;;;;;;2.74;90.18;95370.27;1796130;80;20953;-61
2021/12/30 01:24:39;;;;;;;17.77;9.90;;;;;;;2.81;90.37;95371.62;1795887;80;20962;-61
2021/12/30 01:27:06;;;;;;;19.20;10.87;;;;;;;2.82;90.04;95373.79;1795976;80;20942;-61
2021/12/30 01:29:32;;;;;;;18.60;10.00;;;;;;;2.72;89.54;95378.09;1796070;80;20978;-61
2021/12/30 01:32:00;;;;;;;17.73;10.30;;;;;;;2.71;89.68;95391.08;1795952;80;21523;-61
2021/12/30 01:34:27;;;;;;;16.13;9.37;;;;;;;2.70;89.77;95388.05;1795966;80;20982;-61
2021/12/30 01:36:59;;;;;;;15.97;9.20;;;;;;;2.74;90.09;95385.89;1796189;80;20946;-61
2021/12/30 01:39:25;;;;;;;16.17;8.67;;;;;;;2.77;90.05;95389.41;1795771;80;21001;-62
2021/12/30 01:41:52;;;;;;;16.60;9.10;;;;;;;2.82;90.13;95401.15;1795906;80;20954;-62
2021/12/30 01:44:19;;;;;;;12.27;7.63;;;;;;;2.87;90.27;95395.55;1769624;80;21001;-62
2021/12/30 01:46:47;;;;;;;13.03;7.57;;;;;;;2.86;89.92;95393.81;1795912;80;21547;-62
2021/12/30 01:49:15;;;;;;;13.20;7.33;;;;;;;2.87;89.68;95402.06;1795540;80;21064;-61
2021/12/30 01:51:43;;;;;;;12.17;7.20;;;;;;;2.85;89.21;95399.90;1795872;80;21057;-61
2021/12/30 01:54:11;;;;;;;16.57;9.27;;;;;;;2.91;89.65;95401.23;1789971;79;21011;-62
2021/12/30 01:56:39;;;;;;;16.07;9.20;;;;;;;2.94;89.28;95399.95;1778337;80;21522;-61
2021/12/30 01:59:05;;;;;;;16.87;8.70;;;;;;;2.93;88.79;95403.42;1762509;81;21017;-61
2021/12/30 02:01:32;;;;;;;15.50;9.07;;;;;;;2.93;88.87;95407.77;1778339;80;21020;-61
2021/12/30 02:03:59;;;;;;;14.43;8.70;;;;;;;2.97;88.97;95416.03;1762380;81;21475;-62
2021/12/30 02:06:26;;;;;;;14.93;8.60;;;;;;;2.93;88.53;95424.27;1740504;82;21517;-62
2021/12/30 02:08:53;;;;;;;13.50;8.27;;;;;;;2.91;88.59;95417.30;1740506;82;20993;-61
2021/12/30 02:11:20;;;;;;;15.33;8.73;;;;;;;2.87;88.56;95425.95;1778239;81;21020;-61
2021/12/30 02:13:52;;;;;;;17.23;9.57;;;;;;;2.87;88.72;95435.06;1778267;81;20995;-61
2021/12/30 02:16:21;;;;;;;13.93;8.27;;;;;;;2.79;88.24;95438.91;1778159;80;21012;-61
2021/12/30 02:18:50;;;;;;;16.70;9.00;;;;;;;2.66;88.05;95443.14;1778380;80;20980;-61
2021/12/30 02:21:16;;;;;;;19.60;8.63;;;;;;;2.54;88.12;95443.88;1778235;80;21012;-61
2021/12/30 02:23:43;;;;;;;14.23;8.03;;;;;;;2.48;88.34;95445.58;1778336;80;20999;-61
2021/12/30 02:26:17;;;;;;;15.77;8.77;;;;;;;2.38;88.50;95450.67;1762437;81;21018;-61
2021/12/30 02:28:45;;;;;;;18.60;9.00;;;;;;;2.29;88.76;95449.30;1740416;82;21046;-61
2021/12/30 02:31:16;;;;;;;14.80;8.37;;;;;;;2.27;89.11;95456.61;1740344;82;21168;-61
2021/12/30 02:33:44;;;;;;;17.17;9.53;;;;;;;2.23;89.10;95457.45;1740407;82;20990;-61
2021/12/30 02:36:14;;;;;;;16.70;9.77;;;;;;;2.19;89.07;95460.87;1778228;81;21394;-61
2021/12/30 02:38:45;;;;;;;17.13;10.27;;;;;;;2.21;89.31;95462.62;1778165;81;21000;-61
2021/12/30 02:41:17;;;;;;;17.70;9.50;;;;;;;2.22;89.58;95462.20;1778217;81;21585;-61
2021/12/30 02:43:45;;;;;;;15.73;9.07;;;;;;;2.22;89.83;95456.98;1778257;79;21055;-62
2021/12/30 02:46:11;;;;;;;17.13;9.40;;;;;;;2.24;89.98;95461.80;1778151;80;21016;-61
2021/12/30 02:48:41;;;;;;;16.77;9.30;;;;;;;2.27;90.09;95462.72;1778566;80;21044;-60
2021/12/30 02:51:11;;;;;;;16.17;9.57;;;;;;;2.30;90.09;95473.16;1778089;80;21093;-61
2021/12/30 02:53:39;;;;;;;17.80;9.70;;;;;;;2.33;90.25;95469.72;1762615;81;21122;-61
2021/12/30 02:56:06;;;;;;;16.27;9.90;;;;;;;2.31;90.22;95475.33;1740260;82;21037;-61
2021/12/30 02:58:34;;;;;;;17.10;10.00;;;;;;;2.34;90.34;95474.05;1740122;82;21033;-61
2021/12/30 03:01:23;;;;;;;17.80;10.37;;;;;;;2.41;90.49;95488.89;1778195;81;21012;-61
2021/12/30 03:03:51;;;;;;;17.67;10.47;;;;;;;2.45;90.46;95482.88;1778358;80;20961;-60
2021/12/30 03:06:17;;;;;;;16.97;9.83;;;;;;;2.46;90.19;95477.23;1778443;80;20984;-61
2021/12/30 03:08:46;;;;;;;16.33;9.63;;;;;;;2.45;90.19;95475.06;1778207;80;21502;-61
2021/12/30 03:11:14;;;;;;;21.00;11.57;;;;;;;2.47;90.16;95470.75;1778281;80;21031;-61
2021/12/30 03:13:43;;;;;;;22.20;11.90;;;;;;;2.51;90.36;95485.97;1777835;80;21033;-61
2021/12/30 03:16:18;;;;;;;23.97;12.70;;;;;;;2.58;90.61;95483.44;1778345;80;21533;-61
2021/12/30 03:18:49;;;;;;;22.47;12.57;;;;;;;2.63;90.71;95482.19;1775770;81;21586;-61
2021/12/30 03:21:19;;;;;;;23.03;12.27;;;;;;;2.68;90.43;95487.45;1778130;80;21063;-61
2021/12/30 03:23:47;;;;;;;19.03;10.93;;;;;;;2.72;90.55;95498.33;1778370;80;21051;-61
2021/12/30 03:26:15;;;;;;;19.80;10.83;;;;;;;2.73;90.22;95501.39;1778223;80;20965;-61
2021/12/30 03:28:44;;;;;;;27.10;13.00;;;;;;;2.71;89.93;95503.97;1778113;80;21087;-61
2021/12/30 03:31:15;;;;;;;21.00;11.60;;;;;;;2.72;89.69;95493.12;1778398;80;21517;-61
2021/12/30 03:33:43;;;;;;;18.33;11.10;;;;;;;2.66;89.14;95492.63;1778343;80;21020;-61
2021/12/30 03:36:12;;;;;;;19.70;11.23;;;;;;;2.61;89.02;95494.32;1778359;80;21439;-62
2021/12/30 03:38:43;;;;;;;23.17;12.00;;;;;;;2.54;88.76;95503.78;1778354;80;21020;-62
2021/12/30 03:41:13;;;;;;;23.13;11.60;;;;;;;2.46;88.92;95498.94;1778230;80;21024;-62
2021/12/30 03:43:40;;;;;;;22.77;11.87;;;;;;;;;;1778948;81;21000;-62
2021/12/30 03:46:09;;;;;;;25.33;13.30;;;;;;;2.62;89.88;95505.61;1778521;80;21059;-62
2021/12/30 03:48:42;;;;;;;26.37;13.60;;;;;;;2.65;89.70;95510.44;1778242;81;21003;-62
2021/12/30 03:51:09;;;;;;;22.43;12.33;;;;;;;2.66;89.44;95517.81;1777805;80;21096;-62
2021/12/30 03:53:41;;;;;;;27.20;14.27;;;;;;;2.66;89.20;95517.81;1778856;80;20961;-61
2021/12/30 03:56:13;;;;;;;27.83;15.20;;;;;;;2.65;89.33;95516.95;1778077;79;21526;-62
2021/12/30 03:58:42;;;;;;;29.32;16.12;;;;;;;2.72;89.83;95519.17;1778505;81;21012;-62
2021/12/30 04:01:14;;;;;;;28.83;14.20;;;;;;;2.81;90.13;95523.19;1778342;80;21489;-62
2021/12/30 04:03:41;;;;;;;31.03;14.00;;;;;;;2.78;89.51;95530.54;1778338;80;21083;-62
2021/12/30 04:06:09;;;;;;;26.67;14.13;;;;;;;2.72;89.26;95526.98;1778333;81;21439;-62
2021/12/30 04:08:36;;;;;;;26.80;14.47;;;;;;;2.63;89.04;95532.98;1778217;80;20981;-62
2021/12/30 04:11:03;;;;;;;26.90;14.40;;;;;;;2.61;89.20;95541.20;1778112;80;21043;-62
2021/12/30 04:13:31;;;;;;;25.80;14.33;;;;;;;2.55;89.13;95548.97;1778323;80;21067;-62
2021/12/30 04:15:58;;;;;;;27.30;14.73;;;;;;;2.51;89.24;95547.17;1778344;80;21530;-62
2021/12/30 04:18:24;;;;;;;24.77;13.37;;;;;;;2.46;89.37;95548.41;1778314;80;21490;-62
2021/12/30 04:20:51;;;;;;;30.73;14.53;;;;;;;2.39;89.41;95551.80;1778300;81;21080;-62
2021/12/30 04:23:18;;;;;;;27.33;15.17;;;;;;;2.37;89.50;95560.04;1778222;80;21068;-62
2021/12/30 04:25:44;;;;;;;33.33;17.47;;;;;;;2.34;89.41;95564.78;1778297;80;21455;-61
2021/12/30 04:28:11;;;;;;;30.87;16.30;;;;;;;2.26;89.24;95570.30;1778401;81;21031;-62
2021/12/30 04:30:37;;;;;;;28.67;14.70;;;;;;;2.22;89.24;95578.94;1778327;80;20995;-62
2021/12/30 04:33:26;;;;;;;28.60;14.97;;;;;;;2.23;89.39;95575.91;1778454;81;21103;-62
2021/12/30 04:35:56;;;;;;;29.87;15.27;;;;;;;2.18;89.28;95577.13;1676740;86;21620;-59
2021/12/30 04:38:22;;;;;;;29.83;16.27;;;;;;;2.11;89.36;95585.27;1677093;84;21009;-61
2021/12/30 04:40:49;;;;;;;30.03;15.37;;;;;;;2.11;89.91;95585.27;1672338;86;21009;-61
2021/12/30 04:43:17;;;;;;;29.10;15.90;;;;;;;2.15;90.12;95594.02;1676946;86;21507;-61
2021/12/30 04:45:46;;;;;;;29.30;14.50;;;;;;;2.14;90.07;95589.25;1677046;86;21033;-61
2021/12/30 04:48:14;;;;;;;31.13;15.03;;;;;;;2.16;90.01;95594.02;1677115;86;21074;-62
2021/12/30 04:50:41;;;;;;;28.17;14.57;;;;;;;2.16;90.04;95591.85;1676870;86;21088;-61
2021/12/30 04:53:09;;;;;;;23.90;13.60;;;;;;;2.25;90.56;95595.89;1677144;86;21001;-61
2021/12/30 04:55:35;;;;;;;24.10;13.53;;;;;;;2.33;90.91;95595.99;1676910;85;21005;-61
2021/12/30 04:58:02;;;;;;;30.10;14.47;;;;;;;2.35;90.58;95599.50;1676886;85;21021;-61
2021/12/30 05:00:29;;;;;;;25.90;14.53;;;;;;;2.31;90.18;95599.87;1677052;85;21036;-61
2021/12/30 05:05:25;;;;;;;36.47;18.67;;;;;;;2.46;90.66;95607.00;1676966;86;21084;-60
2021/12/30 05:07:52;;;;;;;36.77;18.77;;;;;;;2.56;90.98;95608.87;1676893;86;21034;-60
2021/12/30 05:10:19;;;;;;;37.07;18.90;;;;;;;2.56;90.36;95608.87;1676609;86;21012;-60
2021/12/30 05:12:46;;;;;;;35.60;18.33;;;;;;;2.56;90.07;95614.52;1677041;85;21024;-60
2021/12/30 05:15:13;;;;;;;35.37;18.03;;;;;;;2.58;90.22;95621.48;1672321;86;21072;-60
2021/12/30 05:17:41;;;;;;;39.63;19.30;;;;;;;2.68;90.55;95632.03;1677111;86;21567;-61
2021/12/30 05:20:10;;;;;;;41.13;20.90;;;;;;;2.72;90.55;95634.70;1676697;86;21010;-61
2021/12/30 05:22:36;;;;;;;37.63;19.43;;;;;;;2.75;90.45;95638.64;1676949;86;21053;-61
2021/12/30 05:25:04;;;;;;;37.77;17.97;;;;;;;2.71;89.83;95636.84;1699793;84;21057;-62
2021/12/30 05:27:31;;;;;;;28.77;15.03;;;;;;;2.64;89.32;95642.83;1677002;85;21026;-61
2021/12/30 05:29:57;;;;;;;29.13;14.67;;;;;;;2.62;89.17;95637.15;1677022;85;21531;-61
2021/12/30 05:32:25;;;;;;;32.10;15.50;;;;;;;2.64;89.63;95635.01;1676646;86;21096;-62
2021/12/30 05:34:51;;;;;;;27.63;14.57;;;;;;;2.67;89.72;95641.59;1676939;86;21480;-61
2021/12/30 05:37:19;;;;;;;33.20;15.37;;;;;;;2.66;89.24;95648.06;1676981;85;21042;-62
2021/12/30 05:39:45;;;;;;;28.10;15.13;;;;;;;2.64;89.32;95645.43;1676921;85;21030;-61
2021/12/30 05:42:12;;;;;;;28.87;15.50;;;;;;;2.69;89.71;95637.68;1676909;85;21509;-62
2021/12/30 05:44:38;;;;;;;28.27;16.97;;;;;;;2.75;89.86;95642.55;1676972;85;21003;-61
2021/12/30 05:47:05;;;;;;;30.73;16.43;;;;;;;2.69;89.38;95654.18;1676938;85;21027;-61
2021/12/30 05:49:31;;;;;;;28.87;16.07;;;;;;;;;;1676921;86;21031;-61
2021/12/30 05:51:58;;;;;;;30.53;15.17;;;;;;;2.64;89.13;95662.80;1676978;86;21054;-61
2021/12/30 05:54:25;;;;;;;29.53;15.17;;;;;;;2.63;89.36;95659.77;1676820;86;21078;-61
2021/12/30 05:56:51;;;;;;;27.40;14.87;;;;;;;2.61;89.48;95670.14;1676645;85;21047;-62
2021/12/30 05:59:18;;;;;;;33.07;15.93;;;;;;;2.57;89.15;95670.55;1676912;86;21066;-62
2021/12/30 06:01:45;;;;;;;28.93;13.60;;;;;;;2.55;89.39;95672.69;1676894;86;21540;-62
2021/12/30 06:04:11;;;;;;;29.83;14.73;;;;;;;2.47;88.98;95684.70;1676649;86;20999;-61
2021/12/30 06:06:37;;;;;;;28.80;14.67;;;;;;;2.33;88.73;95695.80;1677002;85;21512;-61
2021/12/30 06:09:04;;;;;;;29.53;15.83;;;;;;;2.22;89.14;95693.88;1677037;86;21007;-61
2021/12/30 06:11:30;;;;;;;31.00;15.67;;;;;;;2.16;89.34;95699.45;1676863;86;21046;-61
2021/12/30 06:13:57;;;;;;;35.90;17.47;;;;;;;2.18;89.34;95705.13;1677004;85;21054;-62
2021/12/30 06:16:23;;;;;;;33.67;17.97;;;;;;;2.14;89.49;95711.59;1676673;85;21529;-61
2021/12/30 06:18:50;;;;;;;28.50;15.97;;;;;;;2.16;89.70;95724.17;1676984;85;21007;-61
2021/12/30 06:21:17;;;;;;;32.20;16.47;;;;;;;2.18;89.67;95729.84;1676996;86;21085;-61
2021/12/30 06:23:43;;;;;;;33.77;16.47;;;;;;;2.17;89.76;95728.98;1676575;86;21552;-62
2021/12/30 06:26:10;;;;;;;31.40;15.50;;;;;;;2.18;89.60;95733.75;1676858;85;21030;-61
2021/12/30 06:28:36;;;;;;;34.63;16.83;;;;;;;2.13;89.48;95742.35;1677061;86;21058;-61
2021/12/30 06:31:03;;;;;;;61.83;29.70;;;;;;;2.14;89.99;95747.13;1676627;86;21051;-61
2021/12/30 06:33:29;;;;;;;67.40;35.37;;;;;;;2.20;90.25;95748.55;1676993;86;21022;-61
2021/12/30 06:35:56;;;;;;;76.43;38.03;;;;;;;2.28;90.58;95753.88;1676274;85;21533;-61
2021/12/30 06:38:23;;;;;;;137.20;68.13;;;;;;;2.26;90.43;95751.23;1676846;86;21023;-61
2021/12/30 06:40:49;;;;;;;148.43;74.63;;;;;;;2.31;90.69;95746.97;1676579;86;21074;-62
2021/12/30 06:43:16;;;;;;;101.37;53.73;;;;;;;2.34;90.72;95742.23;1676297;86;21050;-62
2021/12/30 06:45:44;;;;;;;105.50;56.80;;;;;;;2.36;90.47;95745.75;1676832;86;21022;-61
2021/12/30 06:48:14;;;;;;;107.50;55.67;;;;;;;2.39;90.63;95747.09;1676628;86;21046;-61
2021/12/30 06:50:52;;;;;;;107.17;57.37;;;;;;;2.44;90.58;95755.84;1676667;86;21035;-62
2021/12/30 06:53:21;;;;;;;108.70;56.07;;;;;;;2.48;90.38;95761.56;1676631;86;21070;-61
2021/12/30 06:55:50;;;;;;;86.73;47.13;;;;;;;2.52;90.48;95754.66;1676646;86;21046;-61
2021/12/30 06:58:17;;;;;;;75.33;39.13;;;;;;;2.56;90.18;95767.76;1676615;86;21578;-62
2021/12/30 07:00:47;;;;;;;69.20;36.57;;;;;;;2.63;90.39;95776.98;1676658;86;21503;-61
2021/12/30 07:03:13;;;;;;;61.23;33.20;;;;;;;2.68;90.34;95787.05;1676920;86;21050;-62
2021/12/30 07:05:41;;;;;;;58.60;32.77;;;;;;;2.77;90.56;95782.84;1676780;86;21078;-61
2021/12/30 07:08:08;;;;;;;56.80;31.83;;;;;;;2.81;90.55;95782.02;1676915;86;21552;-61
2021/12/30 07:10:35;;;;;;;59.43;32.53;;;;;;;2.80;90.08;95785.49;1676560;86;21521;-61
2021/12/30 07:13:03;;;;;;;56.30;29.83;;;;;;;2.82;89.84;95789.41;1676808;86;21062;-61
2021/12/30 07:15:29;;;;;;;47.57;27.97;;;;;;;2.85;90.10;95797.69;1676771;86;21065;-61
2021/12/30 07:17:56;;;;;;;47.90;29.60;;;;;;;2.93;90.36;95801.31;1676893;86;21019;-62
2021/12/30 07:20:22;;;;;;;43.67;26.03;;;;;;;2.97;89.85;95801.37;1676883;86;21031;-61
2021/12/30 07:22:49;;;;;;;31.73;19.30;;;;;;;2.99;89.70;95810.06;1676773;86;21503;-61
2021/12/30 07:25:16;;;;;;;39.10;23.67;;;;;;;3.03;89.78;95817.52;1676841;86;21014;-61
2021/12/30 07:27:46;;;;;;;40.20;25.47;;;;;;;3.10;89.82;95826.28;1676708;86;21022;-62
2021/12/30 07:30:13;;;;;;;40.60;25.83;;;;;;;3.09;89.36;95825.41;1676781;86;21066;-61
2021/12/30 07:32:39;;;;;;;48.03;28.00;;;;;;;3.06;88.83;95832.33;1676963;86;21041;-61
2021/12/30 07:35:07;;;;;;;25.70;16.90;;;;;;;3.08;88.97;95833.23;1676871;84;21549;-61
2021/12/30 07:37:34;;;;;;;38.80;23.87;;;;;;;3.02;88.26;95835.30;1676679;85;21033;-61
2021/12/30 07:40:01;;;;;;;158.43;70.00;;;;;;;3.06;88.61;95837.55;1676902;85;21035;-61
2021/12/30 07:42:27;;;;;;;168.67;78.60;;;;;;;3.08;88.68;95834.10;1677180;86;21050;-62
2021/12/30 07:44:54;;;;;;;90.73;46.37;;;;;;;3.05;88.62;95840.59;1676753;86;21162;-61
2021/12/30 07:47:20;;;;;;;62.73;32.67;;;;;;;2.96;88.41;95833.48;1676788;86;21071;-61
2021/12/30 07:49:47;;;;;;;98.20;59.07;;;;;;;2.92;88.55;95848.63;1677135;86;21018;-61
2021/12/30 07:52:15;;;;;;;91.37;44.80;;;;;;;2.93;88.54;95853.44;1676922;86;21118;-61
2021/12/30 07:54:43;;;;;;;139.27;64.53;;;;;;;2.96;88.76;95850.87;1676998;85;21043;-61
2021/12/30 07:57:12;;;;;;;70.17;33.07;;;;;;;2.98;88.94;95848.73;1676857;86;21015;-62
2021/12/30 07:59:39;;;;;;;39.17;22.77;;;;;;;3.01;88.19;95855.72;1676915;86;21011;-62
2021/12/30 08:02:05;;;;;;;51.83;31.13;;;;;;;3.05;87.98;95857.53;1677086;85;21006;-61
2021/12/30 08:04:32;;;;;;;50.37;28.83;;;;;;;3.14;87.90;95861.98;1677025;86;21055;-61
2021/12/30 08:06:58;;;;;;;45.77;26.53;;;;;;;3.23;88.18;95853.00;1677063;85;21108;-61
2021/12/30 08:09:26;;;;;;;23.30;13.17;;;;;;;3.37;88.25;95854.04;1677091;85;21018;-61
2021/12/30 08:11:53;;;;;;;12.60;8.30;;;;;;;3.56;87.92;95846.04;1676954;86;21058;-61
2021/12/30 08:14:19;;;;;;;9.90;6.50;;;;;;;3.74;87.68;95853.65;1677079;86;21006;-62
2021/12/30 08:16:46;;;;;;;4.50;3.10;;;;;;;3.87;87.12;95849.01;1677068;85;21529;-62
2021/12/30 08:19:12;;;;;;;3.40;1.87;;;;;;;4.02;87.43;95851.78;1677105;85;21043;-61
2021/12/30 08:21:41;;;;;;;20.03;10.67;;;;;;;4.17;87.22;95849.77;1677145;85;21035;-61
2021/12/30 08:24:07;;;;;;;48.63;26.03;;;;;;;4.24;86.43;95851.59;1677202;86;21034;-61
2021/12/30 08:26:34;;;;;;;7.63;4.63;;;;;;;4.31;86.11;95855.15;1676911;86;21027;-62
2021/12/30 08:29:01;;;;;;;3.93;2.63;;;;;;;4.38;86.23;95853.02;1676946;85;21114;-61
2021/12/30 08:31:27;;;;;;;5.33;2.90;;;;;;;4.35;83.95;95858.21;1677035;85;21071;-61
2021/12/30 08:33:54;;;;;;;5.40;4.67;;;;;;;4.34;84.19;95867.80;1677080;85;21050;-61
2021/12/30 08:36:21;;;;;;;2.70;1.90;;;;;;;4.27;83.11;95872.95;1676808;85;21018;-62
2021/12/30 08:38:48;;;;;;;8.03;4.17;;;;;;;4.22;82.08;95885.08;1676966;86;21039;-61
2021/12/30 08:41:15;;;;;;;10.93;6.77;;;;;;;4.15;82.04;95880.64;1677048;86;21042;-61
2021/12/30 08:43:42;;;;;;;10.87;7.83;;;;;;;4.14;82.14;95879.77;1676755;85;21070;-61
2021/12/30 08:46:08;;;;;;;3.73;2.90;;;;;;;4.09;82.21;95881.02;1677099;86;21066;-61
2021/12/30 08:48:37;;;;;;;6.97;3.70;;;;;;;4.04;80.71;95880.53;1676815;86;21122;-61
2021/12/30 08:51:04;;;;;;;4.23;2.83;;;;;;;4.07;80.29;95881.87;1676918;85;21062;-61
2021/12/30 08:53:31;;;;;;;6.77;3.37;;;;;;;4.04;79.81;95884.02;1677043;86;21069;-61
2021/12/30 08:55:58;;;;;;;7.17;4.83;;;;;;;4.06;79.41;95884.05;1676947;85;21046;-61
2021/12/30 08:58:25;;;;;;;7.87;5.10;;;;;;;4.06;79.13;95881.00;1676828;86;21014;-61
2021/12/30 09:00:52;;;;;;;7.83;4.80;;;;;;;4.14;79.40;95885.00;1677242;86;21071;-62
2021/12/30 09:03:18;;;;;;;4.43;3.10;;;;;;;4.27;79.63;95890.79;1676967;85;21018;-61
2021/12/30 09:05:45;;;;;;;5.07;3.03;;;;;;;4.48;80.13;95894.04;1676648;85;21507;-61
2021/12/30 09:08:12;;;;;;;4.07;2.67;;;;;;;4.69;80.23;95888.59;1677011;86;21039;-61
2021/12/30 09:10:40;;;;;;;4.30;3.07;;;;;;;4.83;78.71;95888.70;1676810;85;21082;-61
2021/12/30 09:13:11;;;;;;;4.90;3.40;;;;;;;4.91;78.09;95889.22;1676926;86;21054;-62
2021/12/30 09:15:38;;;;;;;9.30;5.23;;;;;;;5.04;78.21;95887.58;1677036;86;21070;-61
2021/12/30 09:18:06;;;;;;;4.30;2.77;;;;;;;5.14;77.83;95885.47;1676903;85;21150;-62
2021/12/30 09:20:35;;;;;;;4.57;3.00;;;;;;;5.09;75.14;95878.42;1676912;85;21157;-61
2021/12/30 09:23:04;;;;;;;9.53;4.37;;;;;;;5.18;76.00;95881.12;1676955;85;21015;-61
2021/12/30 09:25:31;;;;;;;4.93;3.33;;;;;;;5.27;77.08;95872.47;1677033;86;21042;-61
2021/12/30 09:27:58;;;;;;;3.57;2.10;;;;;;;5.37;77.62;95870.36;1676873;86;21082;-62
2021/12/30 09:30:27;;;;;;;6.60;3.07;;;;;;;5.40;77.41;95875.16;1677018;85;21094;-62
2021/12/30 09:32:58;;;;;;;8.97;3.90;;;;;;;5.47;77.67;95872.56;1676817;86;21058;-61
2021/12/30 09:35:26;;;;;;;5.30;3.27;;;;;;;5.55;76.97;95865.66;1676954;84;21058;-61
2021/12/30 09:37:53;;;;;;;4.57;2.93;;;;;;;5.48;74.91;95867.80;1676625;86;21054;-62
2021/12/30 09:40:21;;;;;;;2.77;1.90;;;;;;;5.47;76.79;95869.54;1676926;86;20999;-61
2021/12/30 09:42:54;;;;;;;2.33;1.73;;;;;;;5.41;74.32;95874.72;1676670;85;21093;-61
2021/12/30 09:45:21;;;;;;;2.25;1.70;;;;;;;5.38;75.32;95872.09;1677095;86;21019;-61
2021/12/30 09:47:54;;;;;;;2.80;2.07;;;;;;;5.34;75.97;95876.45;1677081;86;21054;-62
2021/12/30 09:50:26;;;;;;;2.40;1.70;;;;;;;5.38;76.41;95876.89;1677061;86;21508;-61
2021/12/30 09:52:53;;;;;;;3.30;1.97;;;;;;;5.59;76.83;95871.33;1676547;86;21019;-61
2021/12/30 09:55:20;;;;;;;3.00;2.10;;;;;;;5.96;76.79;95871.53;1676919;86;21000;-62
2021/12/30 09:57:46;;;;;;;3.90;2.40;;;;;;;6.05;75.92;95863.28;1676900;86;21834;-62
2021/12/30 10:00:15;;;;;;;17.17;11.33;;;;;;;6.21;76.24;95868.12;1676907;86;21031;-61
2021/12/30 10:02:44;;;;;;;16.20;11.67;;;;;;;6.30;76.08;95872.52;1676953;85;20987;-61
2021/12/30 10:05:16;;;;;;;17.87;11.80;;;;;;;6.35;75.84;95874.72;1676919;85;21034;-61
2021/12/30 10:07:44;;;;;;;21.60;14.13;;;;;;;6.22;75.19;95882.09;1675922;86;21038;-61
2021/12/30 10:10:34;;;;;;;20.57;14.27;;;;;;;5.99;76.00;95887.25;1676990;86;21082;-62
2021/12/30 10:13:17;;;;;;;17.37;10.93;;;;;;;5.75;76.91;95884.08;1676887;86;21070;-61
2021/12/30 10:15:52;;;;;;;13.70;9.87;;;;;;;5.47;77.66;95901.35;1676785;86;21039;-60
2021/12/30 10:18:19;;;;;;;15.90;10.83;;;;;;;5.32;78.04;95910.01;1676582;86;21094;-61
2021/12/30 10:20:47;;;;;;;16.60;11.83;;;;;;;5.02;78.75;95912.83;1677061;86;21078;-61
2021/12/30 10:23:22;;;;;;;15.63;10.23;;;;;;;4.98;78.97;95913.22;1677015;86;21493;-61
2021/12/30 10:25:53;;;;;;;17.23;10.97;;;;;;;4.80;79.96;95910.90;1676935;85;21082;-61
2021/12/30 10:28:32;;;;;;;15.33;10.43;;;;;;;4.53;80.77;95900.19;1676760;86;21061;-61
2021/12/30 10:31:13;;;;;;;18.43;11.63;;;;;;;4.40;81.62;95906.59;1676698;86;21083;-61
2021/12/30 10:34:04;;;;;;;17.27;10.83;;;;;;;4.32;81.81;95902.16;1656384;86;21037;-61
2021/12/30 10:36:35;;;;;;;16.33;11.37;;;;;;;4.26;81.86;95898.63;1668667;85;21039;-62
2021/12/30 10:39:30;;;;;;;15.43;9.73;;;;;;;4.13;82.17;95905.42;1660068;86;21020;-62
2021/12/30 10:42:15;;;;;;;14.77;10.07;;;;;;;4.03;82.41;95902.27;1660019;86;21094;-62
2021/12/30 10:44:59;;;;;;;31.97;19.20;;;;;;;3.99;82.46;95903.11;1660034;86;21039;-62
2021/12/30 10:47:33;;;;;;;19.80;13.00;;;;;;;4.03;82.71;95894.03;1660227;86;21549;-62
2021/12/30 10:50:08;;;;;;;27.90;15.60;;;;;;;4.10;82.69;95895.82;1659916;86;21043;-62
2021/12/30 10:52:53;;;;;;;58.07;30.63;;;;;;;4.16;82.70;95889.81;1660110;86;21529;-62
2021/12/30 10:55:22;;;;;;;28.10;16.40;;;;;;;4.30;82.91;95876.45;1659909;86;21549;-62
2021/12/30 10:57:50;;;;;;;20.53;14.07;;;;;;;4.77;82.86;95879.07;1659923;86;21078;-62
2021/12/30 11:00:34;;;;;;;14.73;10.47;;;;;;;4.88;82.26;95876.53;1660198;86;21035;-62
2021/12/30 11:03:24;;;;;;;15.03;8.53;;;;;;;4.92;81.79;95875.71;1660125;86;21019;-62
2021/12/30 11:06:12;;;;;;;12.80;9.17;;;;;;;5.06;81.46;95867.95;1660012;86;21020;-59
2021/12/30 11:08:38;;;;;;;14.43;10.70;;;;;;;5.22;81.75;95868.52;1659808;85;21084;-59
2021/12/30 11:11:25;;;;;;;24.67;15.47;;;;;;;5.46;80.39;95849.89;1660009;86;21033;-60
2021/12/30 11:13:59;;;;;;;16.23;10.47;;;;;;;5.52;80.69;95848.59;1659884;86;21538;-59
2021/12/30 11:16:25;;;;;;;11.90;8.00;;;;;;;5.53;80.84;95852.98;1659862;86;21059;-62
2021/12/30 11:18:52;;;;;;;12.93;7.87;;;;;;;5.56;81.25;95856.48;1660127;86;21063;-62
2021/12/30 11:21:41;;;;;;;12.97;8.93;;;;;;;5.56;80.77;95856.92;1660035;86;21462;-62
2021/12/30 11:24:09;;;;;;;14.10;8.33;;;;;;;5.52;80.76;95861.28;1661096;86;21541;-61
2021/12/30 11:26:37;;;;;;;13.33;8.20;;;;;;;5.98;81.01;95862.81;1659966;86;21012;-61
2021/12/30 11:29:06;;;;;;;8.27;5.60;;;;;;;6.84;79.54;95863.41;1659919;86;21031;-61
2021/12/30 11:31:33;;;;;;;8.85;6.10;;;;;;;7.72;77.10;95860.22;1659969;86;21050;-61
2021/12/30 11:34:01;;;;;;;22.82;14.68;;;;;;;8.61;73.94;95853.22;1660119;86;21529;-61
2021/12/30 11:36:29;;;;;;;11.88;8.50;;;;;;;9.20;68.43;95862.86;1659996;86;21051;-61
2021/12/30 11:39:03;;;;;;;9.50;7.15;;;;;;;9.00;71.00;95873.56;1661149;86;21055;-62
2021/12/30 11:41:32;;;;;;;9.83;7.75;;;;;;;8.71;71.46;95882.97;1660138;86;20992;-61